Time;durP1;ratioP1;P1;durP2;ratioP2;P2;SDS_P1;SDS_P2;PMS_P1;PMS_P2;Temp;Humidity;BMP_temperature;BMP_pressure;BME280_temperature;BME280_humidity;BME280_pressure;Samples;Min_cycle;Max_cycle;Signal;HPM_P1;HPM_P2
2023/07/16 00:00:33;;;;;;;7.70;2.60;;;;;;;26.18;59.81;101767.59;106761;1269;24047;-50
2023/07/16 00:03:00;;;;;;;3.80;2.80;;;;;;;26.16;59.90;101769.02;107101;1263;25343;-50
2023/07/16 00:05:28;;;;;;;6.10;2.90;;;;;;;26.14;60.07;101771.29;107068;1261;25504;-50
2023/07/16 00:07:57;;;;;;;5.10;3.00;;;;;;;26.12;60.17;101769.66;107053;1264;25520;-51
2023/07/16 00:10:24;;;;;;;3.50;2.90;;;;;;;26.10;60.23;101771.72;107135;1264;25335;-50
2023/07/16 00:12:51;;;;;;;8.10;3.30;;;;;;;26.09;60.29;101775.39;107075;1262;25325;-50
2023/07/16 00:15:18;;;;;;;7.80;3.10;;;;;;;26.08;60.39;101777.06;107189;1267;25391;-51
2023/07/16 00:17:45;;;;;;;9.50;4.00;;;;;;;26.06;60.47;101775.52;107102;1259;25377;-49
2023/07/16 00:20:12;;;;;;;8.70;3.00;;;;;;;26.04;60.32;101775.13;107108;1264;25391;-49
2023/07/16 00:22:39;;;;;;;4.70;3.40;;;;;;;26.04;60.15;101775.39;107122;1270;25343;-49
2023/07/16 00:25:07;;;;;;;4.60;3.30;;;;;;;26.16;59.71;101768.68;106857;1267;25340;-51
2023/07/16 00:27:35;;;;;;;5.10;3.40;;;;;;;26.17;59.57;101766.42;107078;1267;25357;-49
2023/07/16 00:30:03;;;;;;;6.30;3.50;;;;;;;26.17;59.57;101763.06;107026;1267;25402;-50
2023/07/16 00:32:30;;;;;;;12.00;4.60;;;;;;;26.15;59.58;101760.21;106855;1260;22525;-49
2023/07/16 00:34:57;;;;;;;4.30;3.00;;;;;;;26.13;59.57;101760.52;107079;1257;25484;-49
2023/07/16 00:37:24;;;;;;;6.10;3.70;;;;;;;26.11;59.64;101757.95;106866;1264;23290;-50
2023/07/16 00:39:51;;;;;;;4.60;3.20;;;;;;;26.10;59.73;101757.33;106821;1251;23857;-50
2023/07/16 00:42:19;;;;;;;6.60;3.90;;;;;;;26.09;59.63;101754.42;106767;1266;25331;-49
2023/07/16 00:44:45;;;;;;;7.70;5.30;;;;;;;26.07;59.71;101751.48;106852;1258;25387;-49
2023/07/16 00:47:12;;;;;;;7.00;6.20;;;;;;;26.05;59.69;101750.54;106797;1261;25403;-49
2023/07/16 00:49:39;;;;;;;6.60;5.90;;;;;;;26.03;59.67;101747.13;106587;1261;24218;-49
2023/07/16 00:52:09;;;;;;;10.40;4.60;;;;;;;26.01;59.58;101752.99;107069;1266;23867;-49
2023/07/16 00:54:36;;;;;;;5.50;4.20;;;;;;;25.96;59.56;101758.87;106863;1254;22539;-49
2023/07/16 00:57:04;;;;;;;5.30;4.80;;;;;;;25.89;59.67;101753.68;107040;1264;25529;-51
2023/07/16 00:59:31;;;;;;;5.60;4.20;;;;;;;25.80;60.02;101754.02;106933;1264;25095;-50
2023/07/16 01:01:58;;;;;;;4.70;3.80;;;;;;;25.73;60.40;101754.23;106730;1269;25340;-52
2023/07/16 01:04:25;;;;;;;9.00;4.10;;;;;;;25.65;60.83;101751.88;106519;1270;24208;-52
2023/07/16 01:06:55;;;;;;;9.10;4.50;;;;;;;25.60;61.03;101750.13;106729;1267;25334;-51
2023/07/16 01:09:22;;;;;;;7.90;4.00;;;;;;;25.56;60.92;101745.63;106989;1270;25469;-51
2023/07/16 01:11:50;;;;;;;10.40;4.30;;;;;;;25.53;60.80;101748.30;106863;1264;22585;-52
2023/07/16 01:14:17;;;;;;;7.20;4.00;;;;;;;25.53;60.65;101742.98;106897;1271;25321;-49
2023/07/16 01:16:44;;;;;;;5.10;3.40;;;;;;;25.54;60.44;101744.52;107114;1267;25353;-49
2023/07/16 01:19:13;;;;;;;7.50;3.80;;;;;;;25.56;60.29;101746.84;107030;1254;24208;-49
2023/07/16 01:21:58;;;;;;;11.20;4.50;;;;;;;25.62;59.98;101747.70;106994;1266;25322;-49
2023/07/16 01:25:03;;;;;;;6.60;5.60;;;;;;;25.61;59.68;101749.04;106987;1261;25322;-50
2023/07/16 01:27:51;;;;;;;8.00;4.90;;;;;;;25.55;59.18;101749.98;106229;1276;24227;-51
2023/07/16 01:30:19;;;;;;;6.80;4.90;;;;;;;25.49;58.92;101752.33;106526;1268;25412;-51
2023/07/16 01:32:47;;;;;;;9.10;5.10;;;;;;;25.41;58.98;101750.88;106498;1267;25488;-50
2023/07/16 01:35:15;;;;;;;6.50;4.70;;;;;;;25.36;59.01;101753.58;106567;1266;22536;-50
2023/07/16 01:37:42;;;;;;;6.60;4.30;;;;;;;25.29;59.42;101749.05;106544;1276;25409;-50
2023/07/16 01:40:09;;;;;;;6.80;4.40;;;;;;;25.24;59.68;101747.63;106577;1273;25356;-50
2023/07/16 01:42:36;;;;;;;7.70;4.40;;;;;;;25.20;60.06;101746.17;106698;1264;25353;-50
2023/07/16 01:45:04;;;;;;;6.60;4.40;;;;;;;25.15;60.36;101746.30;106681;1273;25326;-51
2023/07/16 01:47:34;;;;;;;6.30;4.60;;;;;;;25.12;60.53;101744.39;106662;1267;24287;-50
2023/07/16 01:50:03;;;;;;;7.80;5.00;;;;;;;25.09;60.66;101742.81;106363;1274;25517;-50
2023/07/16 01:52:30;;;;;;;8.80;4.90;;;;;;;25.07;61.05;101739.21;106751;1267;25386;-50
2023/07/16 01:54:57;;;;;;;6.70;4.50;;;;;;;25.05;61.18;101740.23;106703;1270;25336;-51
2023/07/16 01:57:24;;;;;;;6.60;4.80;;;;;;;25.03;61.33;101737.66;106762;1267;25559;-50
2023/07/16 01:59:51;;;;;;;8.90;5.10;;;;;;;25.02;61.58;101739.86;106528;1269;22537;-50
2023/07/16 02:02:19;;;;;;;6.30;5.10;;;;;;;25.02;61.78;101737.93;105855;1267;1002897;-50
2023/07/16 02:04:46;;;;;;;5.80;4.70;;;;;;;25.02;62.02;101741.44;106481;1269;22533;-50
2023/07/16 02:07:13;;;;;;;5.90;4.50;;;;;;;25.03;62.20;101742.69;107002;1264;25324;-50
2023/07/16 02:09:42;;;;;;;8.80;4.50;;;;;;;25.02;62.26;101744.84;107070;1263;25407;-50
2023/07/16 02:12:09;;;;;;;9.70;5.70;;;;;;;25.01;62.14;101741.89;106911;1266;25438;-50
2023/07/16 02:14:36;;;;;;;9.10;5.20;;;;;;;25.00;62.09;101744.78;107090;1264;24045;-51
2023/07/16 02:17:04;;;;;;;9.20;4.60;;;;;;;25.01;62.02;101744.77;106916;1267;25315;-50
2023/07/16 02:19:31;;;;;;;5.70;4.50;;;;;;;25.01;61.82;101747.77;107099;1251;25482;-50
2023/07/16 02:21:58;;;;;;;5.30;4.80;;;;;;;25.01;61.66;101754.30;107068;1267;25456;-50
2023/07/16 02:24:26;;;;;;;6.60;4.80;;;;;;;25.02;61.40;101750.73;107080;1264;25504;-50
2023/07/16 02:26:53;;;;;;;10.70;5.30;;;;;;;25.02;61.37;101746.98;107061;1258;25340;-49
2023/07/16 02:29:20;;;;;;;9.80;4.80;;;;;;;25.03;61.24;101754.21;106820;1257;25366;-49
2023/07/16 02:31:48;;;;;;;5.70;4.70;;;;;;;25.03;61.04;101754.00;106723;1270;25348;-49
2023/07/16 02:34:15;;;;;;;8.10;4.70;;;;;;;25.04;61.04;101754.98;107106;1258;25416;-50
2023/07/16 02:36:43;;;;;;;7.60;4.80;;;;;;;25.07;60.98;101757.14;107088;1261;25353;-49
2023/07/16 02:39:10;;;;;;;8.80;5.00;;;;;;;25.08;60.97;101755.31;107206;1251;22536;-49
2023/07/16 02:41:37;;;;;;;6.20;4.70;;;;;;;25.08;61.25;101752.05;107108;1264;25431;-50
2023/07/16 02:44:05;;;;;;;7.50;5.00;;;;;;;25.10;61.35;101754.10;107052;1255;25347;-49
2023/07/16 02:46:33;;;;;;;9.00;5.20;;;;;;;25.12;61.51;101759.68;106994;1264;25346;-49
2023/07/16 02:49:01;;;;;;;9.60;5.20;;;;;;;25.12;61.77;101762.29;106865;1266;25325;-50
2023/07/16 02:51:30;;;;;;;72.90;66.00;;;;;;;25.13;61.85;101763.65;106779;1258;24479;-49
2023/07/16 02:53:57;;;;;;;23.20;20.60;;;;;;;25.15;61.93;101765.31;107098;1263;25456;-49
2023/07/16 02:56:24;;;;;;;10.10;8.80;;;;;;;25.18;61.99;101761.21;107138;1253;25373;-49
2023/07/16 02:58:51;;;;;;;7.40;6.60;;;;;;;25.20;62.12;101765.69;107037;1259;25485;-49
2023/07/16 03:01:18;;;;;;;16.90;14.90;;;;;;;25.21;62.45;101767.20;107045;1253;25357;-50
2023/07/16 03:03:45;;;;;;;10.90;7.00;;;;;;;25.22;62.55;101766.58;106924;1262;25451;-49
2023/07/16 03:06:12;;;;;;;7.70;4.70;;;;;;;25.24;61.94;101766.95;107163;1263;25330;-49
2023/07/16 03:08:39;;;;;;;7.10;4.50;;;;;;;25.27;60.03;101770.34;107199;1263;25401;-49
2023/07/16 03:11:07;;;;;;;8.20;4.60;;;;;;;25.29;58.15;101774.31;106863;1259;25343;-50
2023/07/16 03:13:34;;;;;;;7.30;4.40;;;;;;;25.30;56.75;101780.04;106362;1258;25412;-50
2023/07/16 03:16:01;;;;;;;7.50;4.30;;;;;;;25.34;56.28;101782.27;106751;1264;25325;-48
2023/07/16 03:18:29;;;;;;;5.30;3.50;;;;;;;25.37;55.98;101785.63;106816;1264;25409;-50
2023/07/16 03:20:57;;;;;;;5.20;4.10;;;;;;;25.39;55.62;101788.51;106802;1265;24392;-49
2023/07/16 03:23:24;;;;;;;5.80;4.20;;;;;;;25.41;55.30;101793.54;107109;1264;22562;-49
2023/07/16 03:25:52;;;;;;;4.20;3.70;;;;;;;25.43;55.06;101795.94;107082;1257;25364;-49
2023/07/16 03:28:19;;;;;;;5.00;3.90;;;;;;;25.44;54.76;101795.33;107109;1264;25325;-49
2023/07/16 03:30:47;;;;;;;5.40;3.50;;;;;;;25.45;54.36;101793.34;106849;1257;23205;-49
2023/07/16 03:33:15;;;;;;;7.20;4.10;;;;;;;25.47;53.93;101791.58;106806;1260;24357;-50
2023/07/16 03:35:43;;;;;;;6.00;4.00;;;;;;;25.47;53.65;101789.61;106974;1262;25254;-49
2023/07/16 03:38:11;;;;;;;9.50;4.20;;;;;;;25.47;53.30;101794.36;106829;1254;25313;-48
2023/07/16 03:40:38;;;;;;;4.70;4.20;;;;;;;25.51;52.85;101794.31;106742;1267;25411;-50
2023/07/16 03:43:07;;;;;;;5.00;3.70;;;;;;;25.57;52.24;101795.64;106741;1262;22535;-49
2023/07/16 03:45:35;;;;;;;7.20;4.40;;;;;;;25.68;51.87;101799.73;106731;1267;25383;-49
2023/07/16 03:48:02;;;;;;;7.40;4.40;;;;;;;25.80;51.74;101791.77;106799;1259;25315;-50
2023/07/16 03:50:31;;;;;;;7.10;3.80;;;;;;;26.03;51.49;101793.91;106787;1263;25410;-49
2023/07/16 03:52:59;;;;;;;5.20;3.80;;;;;;;26.36;50.85;101787.98;106727;1273;25439;-49
2023/07/16 03:55:26;;;;;;;6.60;4.10;;;;;;;26.79;50.14;101785.23;106703;1259;22534;-50
2023/07/16 03:57:55;;;;;;;5.40;3.70;;;;;;;27.27;49.11;101788.05;106686;1266;24319;-49
2023/07/16 04:00:22;;;;;;;5.40;3.90;;;;;;;27.79;48.24;101790.30;106700;1267;25478;-49
2023/07/16 04:02:49;;;;;;;7.30;3.90;;;;;;;28.29;46.83;101785.98;106690;1268;22515;-50
2023/07/16 04:05:19;;;;;;;8.50;3.90;;;;;;;28.62;45.75;101792.25;106816;1271;22533;-49
2023/07/16 04:07:51;;;;;;;7.20;4.30;;;;;;;28.71;45.08;101789.69;106642;1271;25743;-49
2023/07/16 04:10:18;;;;;;;5.80;4.00;;;;;;;28.64;44.61;101785.67;106797;1267;25318;-49
2023/07/16 04:12:45;;;;;;;8.10;4.20;;;;;;;28.46;44.81;101788.46;107004;1263;25412;-49
2023/07/16 04:15:12;;;;;;;4.80;4.40;;;;;;;28.24;45.27;101792.98;107118;1261;25373;-49
2023/07/16 04:17:40;;;;;;;8.00;3.90;;;;;;;28.00;45.54;101794.92;106848;1267;25371;-49
2023/07/16 04:20:08;;;;;;;6.20;4.30;;;;;;;27.75;45.83;101798.84;107107;1264;25335;-49
2023/07/16 04:22:35;;;;;;;4.50;3.70;;;;;;;27.51;46.42;101801.90;107136;1256;25391;-49
2023/07/16 04:25:03;;;;;;;6.50;4.20;;;;;;;27.30;47.14;101802.93;107125;1264;25351;-49
2023/07/16 04:27:31;;;;;;;6.60;5.90;;;;;;;27.12;47.45;101804.66;107092;1259;22531;-50
2023/07/16 04:29:58;;;;;;;8.30;4.90;;;;;;;26.97;47.88;101803.84;107134;1261;22584;-50
2023/07/16 04:32:25;;;;;;;5.70;4.30;;;;;;;26.82;48.41;101803.74;107006;1264;25412;-49
2023/07/16 04:34:52;;;;;;;6.20;4.30;;;;;;;26.69;48.86;101801.27;106711;1267;25363;-51
2023/07/16 04:37:19;;;;;;;6.50;4.50;;;;;;;26.60;49.01;101803.34;106928;1264;25389;-50
2023/07/16 04:39:46;;;;;;;7.20;4.60;;;;;;;26.51;48.93;101807.36;107134;1253;22652;-50
2023/07/16 04:42:13;;;;;;;7.20;4.30;;;;;;;26.42;48.84;101807.81;107039;1267;25321;-50
2023/07/16 04:44:42;;;;;;;6.20;4.20;;;;;;;26.35;48.92;101812.44;107102;1262;25332;-50
2023/07/16 04:47:09;;;;;;;5.90;4.30;;;;;;;26.30;48.92;101815.52;107140;1256;25231;-50
2023/07/16 04:49:36;;;;;;;3.60;3.30;;;;;;;26.25;48.77;101817.59;107051;1255;24237;-50
2023/07/16 04:52:05;;;;;;;5.20;4.00;;;;;;;26.22;48.57;101817.81;106631;1266;24027;-51
2023/07/16 04:54:37;;;;;;;4.80;3.60;;;;;;;26.21;48.81;101822.31;106524;1270;25394;-51
2023/07/16 04:57:06;;;;;;;6.40;3.90;;;;;;;26.23;48.52;101816.70;106912;1253;25335;-50
2023/07/16 04:59:33;;;;;;;4.30;3.70;;;;;;;26.25;48.16;101821.71;107076;1259;25360;-51
2023/07/16 05:02:04;;;;;;;9.90;4.10;;;;;;;26.27;48.15;101820.88;106853;1267;25325;-50
2023/07/16 05:04:32;;;;;;;5.80;4.00;;;;;;;26.30;48.09;101825.80;107088;1264;25388;-49
2023/07/16 05:07:01;;;;;;;5.10;4.50;;;;;;;26.34;48.15;101829.62;106689;1269;25357;-50
2023/07/16 05:09:28;;;;;;;5.80;3.40;;;;;;;26.37;47.66;101828.63;107152;1252;25321;-50
2023/07/16 05:11:56;;;;;;;5.40;3.70;;;;;;;26.42;47.50;101831.31;107036;1251;23868;-50
2023/07/16 05:14:26;;;;;;;4.70;3.40;;;;;;;26.52;47.48;101826.72;107153;1264;25324;-50
2023/07/16 05:16:55;;;;;;;6.30;3.60;;;;;;;26.69;47.33;101822.95;107158;1259;25325;-49
2023/07/16 05:19:22;;;;;;;6.20;3.80;;;;;;;26.92;46.71;101826.61;107065;1253;25385;-50
2023/07/16 05:21:49;;;;;;;3.90;3.50;;;;;;;27.20;46.09;101825.73;107053;1264;25354;-50
2023/07/16 05:24:16;;;;;;;5.20;3.80;;;;;;;27.56;45.51;101825.80;106780;1259;25447;-49
2023/07/16 05:26:43;;;;;;;4.80;3.90;;;;;;;27.92;44.90;101829.23;107078;1264;25350;-50
2023/07/16 05:29:10;;;;;;;12.90;4.50;;;;;;;28.29;44.40;101831.09;106781;1258;25505;-49
2023/07/16 05:31:37;;;;;;;4.30;3.80;;;;;;;28.64;43.83;101832.96;107037;1264;25325;-49
2023/07/16 05:34:04;;;;;;;7.40;3.90;;;;;;;28.92;43.22;101836.73;107121;1251;25345;-51
2023/07/16 05:36:32;;;;;;;6.00;4.10;;;;;;;29.10;42.89;101839.74;107109;1252;23850;-49
2023/07/16 05:38:59;;;;;;;7.30;3.10;;;;;;;29.26;42.83;101842.34;107059;1264;25360;-49
2023/07/16 05:41:26;;;;;;;3.90;3.30;;;;;;;29.38;40.64;101840.81;107187;1252;25482;-49
2023/07/16 05:43:53;;;;;;;5.80;3.00;;;;;;;29.46;39.25;101836.94;107140;1256;25332;-50
2023/07/16 05:46:21;;;;;;;4.10;2.70;;;;;;;29.54;38.46;101834.63;106933;1262;25400;-49
2023/07/16 05:48:49;;;;;;;4.20;2.40;;;;;;;29.60;37.74;101833.74;106732;1267;25398;-49
2023/07/16 05:51:16;;;;;;;3.80;2.80;;;;;;;29.62;36.84;101835.15;106792;1260;25467;-49
2023/07/16 05:53:43;;;;;;;4.30;2.90;;;;;;;29.65;36.90;101838.70;106719;1252;25510;-49
2023/07/16 05:56:09;;;;;;;3.00;2.60;;;;;;;29.73;37.25;101836.23;106845;1263;25487;-49
2023/07/16 05:58:37;;;;;;;4.50;2.80;;;;;;;29.88;37.23;101840.63;106952;1262;25335;-49
2023/07/16 06:01:05;;;;;;;4.50;2.80;;;;;;;30.08;37.21;101841.16;107147;1264;25520;-50
2023/07/16 06:03:32;;;;;;;6.80;2.70;;;;;;;30.32;36.82;101840.20;107176;1264;23472;-51
2023/07/16 06:05:59;;;;;;;4.30;2.50;;;;;;;30.54;36.61;101841.30;107058;1264;25344;-50
2023/07/16 06:08:26;;;;;;;3.80;2.40;;;;;;;30.72;36.44;101840.94;107132;1259;25372;-49
2023/07/16 06:10:53;;;;;;;7.10;3.50;;;;;;;30.86;36.26;101839.52;107047;1256;25363;-50
2023/07/16 06:13:20;;;;;;;4.40;2.70;;;;;;;30.96;36.07;101834.08;107106;1256;25342;-50
2023/07/16 06:15:47;;;;;;;5.40;2.30;;;;;;;31.03;35.52;101833.27;107219;1257;25345;-50
2023/07/16 06:18:14;;;;;;;3.20;2.70;;;;;;;31.03;35.52;101839.73;106860;1258;25390;-50
2023/07/16 06:20:45;;;;;;;3.50;2.80;;;;;;;31.09;35.98;101844.91;107062;1264;25335;-50
2023/07/16 06:23:12;;;;;;;3.90;2.60;;;;;;;31.27;35.94;101837.54;107074;1262;25357;-50
2023/07/16 06:25:48;;;;;;;5.40;3.00;;;;;;;31.37;35.78;101838.59;107027;1257;25367;-50
2023/07/16 06:28:15;;;;;;;7.70;2.70;;;;;;;31.40;36.26;101844.37;107155;1254;24208;-50
2023/07/16 06:30:42;;;;;;;3.90;2.70;;;;;;;31.37;36.72;101839.98;107112;1265;25366;-50
2023/07/16 06:33:09;;;;;;;2.60;2.40;;;;;;;31.32;36.74;101845.09;107185;1262;22524;-50
2023/07/16 06:35:37;;;;;;;2.80;2.50;;;;;;;31.25;36.81;101846.26;107057;1259;24204;-50
2023/07/16 06:38:04;;;;;;;6.40;2.60;;;;;;;31.18;37.58;101851.58;107060;1262;22605;-50
2023/07/16 06:40:32;;;;;;;6.10;2.70;;;;;;;31.13;38.30;101855.46;107084;1264;25332;-49
2023/07/16 06:42:59;;;;;;;4.80;3.20;;;;;;;31.09;38.47;101851.39;107066;1263;25502;-50
2023/07/16 06:45:26;;;;;;;3.60;2.90;;;;;;;31.03;38.39;101856.77;107021;1253;25360;-50
2023/07/16 06:47:53;;;;;;;5.00;2.90;;;;;;;30.96;38.85;101855.64;106724;1267;25432;-50
2023/07/16 06:50:21;;;;;;;5.50;2.80;;;;;;;30.89;38.89;101858.26;107080;1264;25331;-50
2023/07/16 06:52:48;;;;;;;7.10;3.10;;;;;;;30.82;39.31;101859.39;107024;1267;25412;-50
2023/07/16 06:55:15;;;;;;;8.00;3.80;;;;;;;30.76;39.94;101861.17;106983;1267;25322;-50
2023/07/16 06:57:42;;;;;;;4.30;2.90;;;;;;;30.70;40.38;101861.86;107135;1253;25366;-50
2023/07/16 07:00:12;;;;;;;7.50;3.20;;;;;;;30.64;40.93;101862.23;106713;1259;25485;-49
2023/07/16 07:02:41;;;;;;;4.30;2.90;;;;;;;30.57;41.67;101859.48;107119;1254;22524;-49
2023/07/16 07:05:08;;;;;;;4.80;3.10;;;;;;;30.54;42.13;101856.83;107073;1256;25404;-49
2023/07/16 07:07:36;;;;;;;3.80;3.20;;;;;;;30.52;42.53;101861.85;106834;1258;25555;-49
2023/07/16 07:10:04;;;;;;;4.30;2.90;;;;;;;30.51;42.91;101855.31;107192;1267;25412;-50
2023/07/16 07:12:37;;;;;;;4.30;3.10;;;;;;;30.49;43.18;101854.38;106920;1256;25332;-50
2023/07/16 07:15:08;;;;;;;4.10;3.20;;;;;;;30.53;43.46;101858.01;107011;1270;25325;-51
2023/07/16 07:17:35;;;;;;;4.80;3.20;;;;;;;30.60;43.44;101858.88;106779;1271;25361;-50
2023/07/16 07:20:03;;;;;;;4.50;3.30;;;;;;;30.68;43.63;101860.13;107166;1264;25325;-49
2023/07/16 07:22:31;;;;;;;5.40;3.60;;;;;;;30.78;43.65;101861.17;106809;1274;25402;-49
2023/07/16 07:24:58;;;;;;;5.20;3.30;;;;;;;30.88;43.48;101863.84;107187;1264;25340;-50
2023/07/16 07:27:25;;;;;;;3.20;2.90;;;;;;;30.98;43.42;101861.02;107032;1257;25373;-49
2023/07/16 07:29:55;;;;;;;3.90;3.50;;;;;;;31.07;43.54;101864.32;106840;1271;25335;-49
2023/07/16 07:32:22;;;;;;;3.80;3.30;;;;;;;31.17;43.62;101863.18;107097;1263;25427;-50
2023/07/16 07:34:49;;;;;;;4.00;3.00;;;;;;;31.24;43.60;101869.55;107154;1263;25360;-50
2023/07/16 07:37:16;;;;;;;3.10;2.90;;;;;;;31.31;43.63;101866.90;107128;1257;25520;-49
2023/07/16 07:39:47;;;;;;;3.50;2.80;;;;;;;31.39;43.47;101870.16;107114;1266;25332;-48
2023/07/16 07:42:14;;;;;;;4.50;3.00;;;;;;;31.47;43.04;101870.64;107115;1256;25357;-49
2023/07/16 07:44:41;;;;;;;7.50;3.10;;;;;;;31.50;42.91;101875.19;106879;1271;22527;-48
2023/07/16 07:47:08;;;;;;;4.10;3.30;;;;;;;31.54;43.18;101876.60;106781;1251;25391;-49
2023/07/16 07:49:37;;;;;;;4.40;2.80;;;;;;;31.57;43.15;101873.44;107003;1269;25393;-49
2023/07/16 07:52:05;;;;;;;3.40;3.00;;;;;;;31.58;43.09;101874.48;107133;1252;25422;-49
2023/07/16 07:54:33;;;;;;;3.80;2.60;;;;;;;31.55;42.94;101876.14;106841;1269;25348;-49
2023/07/16 07:57:06;;;;;;;3.80;3.00;;;;;;;31.51;42.91;101874.95;106851;1264;230548;-49
2023/07/16 07:59:33;;;;;;;6.10;2.90;;;;;;;31.43;43.15;101873.85;106814;1265;25332;-51
2023/07/16 08:02:01;;;;;;;3.20;2.90;;;;;;;31.40;43.47;101873.23;106920;1259;25336;-48
2023/07/16 08:04:30;;;;;;;4.00;2.90;;;;;;;31.39;43.67;101869.44;107188;1267;25348;-50
2023/07/16 08:06:57;;;;;;;3.10;2.80;;;;;;;31.34;43.96;101870.05;107165;1253;25420;-48
2023/07/16 08:09:26;;;;;;;3.10;2.50;;;;;;;31.29;44.16;101872.42;106814;1267;25360;-51
2023/07/16 08:11:53;;;;;;;4.70;2.90;;;;;;;31.27;44.22;101872.77;106914;1268;25363;-50
2023/07/16 08:14:20;;;;;;;3.10;2.70;;;;;;;31.25;44.37;101873.77;107049;1264;25363;-49
2023/07/16 08:16:47;;;;;;;3.70;3.10;;;;;;;31.20;44.46;101876.91;106896;1264;25466;-50
2023/07/16 08:19:14;;;;;;;5.40;3.30;;;;;;;31.13;44.80;101877.58;106932;1265;25335;-50
2023/07/16 08:21:43;;;;;;;3.90;2.80;;;;;;;31.04;45.18;101878.04;106774;1263;25323;-48
2023/07/16 08:24:10;;;;;;;3.30;2.60;;;;;;;30.98;45.49;101883.71;106826;1262;25422;-49
2023/07/16 08:26:38;;;;;;;5.00;2.90;;;;;;;30.95;45.83;101885.97;107016;1260;25321;-49
2023/07/16 08:29:05;;;;;;;3.80;3.20;;;;;;;30.93;45.97;101885.48;106712;1253;23294;-50
2023/07/16 08:31:32;;;;;;;3.10;2.80;;;;;;;30.95;46.15;101884.24;107111;1262;24266;-50
2023/07/16 08:33:59;;;;;;;3.20;2.90;;;;;;;30.95;46.09;101885.99;106754;1266;25367;-51
2023/07/16 08:36:32;;;;;;;3.00;2.70;;;;;;;30.95;45.90;101888.17;106940;1257;25360;-49
2023/07/16 08:38:59;;;;;;;3.20;2.30;;;;;;;30.96;45.59;101891.12;106914;1259;25351;-50
2023/07/16 08:41:26;;;;;;;5.20;2.50;;;;;;;31.00;44.55;101892.73;106521;1259;25318;-50
2023/07/16 08:43:53;;;;;;;5.10;2.50;;;;;;;31.02;44.15;101891.64;106461;1258;25383;-50
2023/07/16 08:46:20;;;;;;;2.90;2.00;;;;;;;31.05;43.86;101890.65;106881;1265;25516;-50
2023/07/16 08:48:47;;;;;;;3.20;2.40;;;;;;;31.10;43.50;101891.09;106866;1267;25332;-52
2023/07/16 08:51:15;;;;;;;3.00;2.40;;;;;;;31.12;43.02;101892.11;106838;1266;25394;-50
2023/07/16 08:53:42;;;;;;;2.80;2.10;;;;;;;31.10;43.05;101889.67;107033;1256;22520;-50
2023/07/16 08:56:09;;;;;;;3.80;2.10;;;;;;;31.06;43.47;101888.40;107094;1253;22526;-50
2023/07/16 08:58:37;;;;;;;5.90;2.30;;;;;;;31.04;43.17;101890.94;107053;1264;23398;-50
2023/07/16 09:01:04;;;;;;;3.80;2.40;;;;;;;31.03;43.03;101894.55;106795;1265;25347;-51
2023/07/16 09:03:31;;;;;;;2.70;2.20;;;;;;;31.05;43.25;101890.46;106827;1264;22520;-50
2023/07/16 09:05:58;;;;;;;2.20;2.00;;;;;;;31.08;43.11;101891.58;107126;1269;25383;-50
2023/07/16 09:08:28;;;;;;;6.60;2.20;;;;;;;31.11;42.95;101891.32;106872;1268;25401;-49
2023/07/16 09:10:55;;;;;;;2.90;1.90;;;;;;;31.11;43.38;101890.59;107160;1264;25447;-50
2023/07/16 09:13:29;;;;;;;2.90;2.20;;;;;;;31.14;43.62;101887.30;106749;1268;25336;-49
2023/07/16 09:15:57;;;;;;;5.00;2.40;;;;;;;31.16;43.70;101887.81;107046;1265;25350;-50
2023/07/16 09:18:26;;;;;;;2.90;2.50;;;;;;;31.18;43.57;101884.75;107052;1256;25414;-50
2023/07/16 09:20:57;;;;;;;2.40;2.10;;;;;;;31.22;43.69;101883.54;107159;1263;25347;-50
2023/07/16 09:23:26;;;;;;;3.70;2.50;;;;;;;31.25;43.69;101880.20;107063;1265;25371;-50
2023/07/16 09:25:54;;;;;;;2.50;1.80;;;;;;;31.27;43.40;101882.36;107143;1263;22978;-50
2023/07/16 09:28:21;;;;;;;2.20;2.00;;;;;;;31.31;43.43;101879.61;107143;1262;25249;-49
2023/07/16 09:30:52;;;;;;;3.70;2.10;;;;;;;31.34;43.75;101882.36;107137;1264;25482;-50
2023/07/16 09:33:25;;;;;;;4.00;2.50;;;;;;;31.31;44.49;101877.83;107026;1263;25332;-50
2023/07/16 09:35:53;;;;;;;2.50;2.10;;;;;;;31.29;45.03;101881.97;107106;1260;25332;-49
2023/07/16 09:38:20;;;;;;;2.50;1.90;;;;;;;31.26;45.04;101881.01;107063;1257;25395;-50
2023/07/16 09:40:47;;;;;;;2.30;1.80;;;;;;;31.27;44.80;101882.56;106857;1267;25332;-50
2023/07/16 09:43:15;;;;;;;3.40;2.20;;;;;;;31.29;44.91;101880.86;106872;1256;24192;-49
2023/07/16 09:45:42;;;;;;;4.00;2.00;;;;;;;31.36;44.90;101879.56;107089;1264;24217;-49
2023/07/16 09:48:09;;;;;;;2.50;1.70;;;;;;;31.42;44.67;101881.39;107113;1264;25367;-49
2023/07/16 09:50:38;;;;;;;3.50;2.10;;;;;;;31.44;44.38;101880.27;107148;1259;25379;-50
2023/07/16 09:53:05;;;;;;;4.10;2.00;;;;;;;31.47;44.50;101881.98;106933;1258;25789;-49
2023/07/16 09:55:33;;;;;;;2.90;2.10;;;;;;;31.53;44.01;101878.47;106833;1267;22517;-49
2023/07/16 09:58:03;;;;;;;4.70;2.10;;;;;;;31.57;43.90;101881.00;106904;1267;22513;-49
2023/07/16 10:00:31;;;;;;;4.30;2.50;;;;;;;31.56;43.94;101875.33;107259;1253;22535;-49
2023/07/16 10:02:58;;;;;;;7.20;2.80;;;;;;;31.54;44.03;101872.71;106613;1274;25347;-49
2023/07/16 10:05:26;;;;;;;2.60;2.20;;;;;;;31.48;44.24;101869.65;106788;1256;25317;-49
2023/07/16 10:08:00;;;;;;;3.40;2.10;;;;;;;31.45;43.53;101866.69;106961;1263;22523;-50
2023/07/16 10:10:53;;;;;;;3.30;1.90;;;;;;;31.42;43.43;101865.16;107155;1256;25332;-49
2023/07/16 10:13:22;;;;;;;3.10;2.00;;;;;;;31.42;43.77;101864.82;106725;1268;24268;-49
2023/07/16 10:15:53;;;;;;;4.50;2.10;;;;;;;31.40;43.98;101862.67;107077;1255;24197;-50
2023/07/16 10:18:32;;;;;;;2.40;2.20;;;;;;;31.40;44.27;101858.00;107067;1259;22947;-49
2023/07/16 10:21:07;;;;;;;2.30;1.90;;;;;;;31.42;44.25;101851.58;107088;1263;25481;-49
2023/07/16 10:23:42;;;;;;;5.00;2.00;;;;;;;31.43;44.43;101847.89;107111;1259;24379;-49
2023/07/16 10:26:13;;;;;;;3.90;1.70;;;;;;;31.45;44.48;101847.48;107139;1251;25552;-49
2023/07/16 10:28:45;;;;;;;3.50;2.10;;;;;;;31.47;44.15;101843.78;107097;1255;22580;-49
2023/07/16 10:31:23;;;;;;;4.00;2.20;;;;;;;31.52;44.05;101848.50;107056;1266;25515;-49
2023/07/16 10:34:01;;;;;;;2.40;2.00;;;;;;;31.58;43.78;101849.02;106883;1265;24497;-49
2023/07/16 10:36:28;;;;;;;2.80;2.00;;;;;;;31.62;43.32;101853.80;107058;1264;25403;-50
2023/07/16 10:39:02;;;;;;;9.50;2.30;;;;;;;31.62;43.39;101849.10;107089;1256;25344;-49
2023/07/16 10:41:31;;;;;;;2.30;2.10;;;;;;;31.64;43.59;101853.98;107139;1267;22523;-49
2023/07/16 10:43:58;;;;;;;4.00;2.00;;;;;;;31.67;43.68;101849.36;107106;1256;25348;-49
2023/07/16 10:46:25;;;;;;;3.60;1.90;;;;;;;31.72;43.76;101848.73;106998;1266;25516;-50
2023/07/16 10:48:52;;;;;;;3.60;2.10;;;;;;;31.75;43.93;101847.67;107060;1265;25361;-50
2023/07/16 10:51:26;;;;;;;4.80;2.70;;;;;;;31.77;44.11;101849.11;106851;1267;22562;-49
2023/07/16 10:53:55;;;;;;;2.90;2.20;;;;;;;31.79;44.12;101841.95;107090;1256;23519;-49
2023/07/16 10:56:22;;;;;;;2.40;1.90;;;;;;;31.82;44.26;101839.88;107084;1256;22645;-49
2023/07/16 10:58:49;;;;;;;2.40;2.10;;;;;;;31.87;43.97;101838.64;106880;1269;25425;-49
2023/07/16 11:01:16;;;;;;;5.30;2.60;;;;;;;31.88;43.66;101837.34;107100;1256;25360;-50
2023/07/16 11:03:43;;;;;;;3.00;2.00;;;;;;;31.87;43.68;101832.73;107091;1265;25383;-49
2023/07/16 11:06:15;;;;;;;1.90;1.80;;;;;;;31.88;43.65;101835.23;107084;1258;25592;-49
2023/07/16 11:08:43;;;;;;;4.00;2.10;;;;;;;31.85;43.83;101830.97;107076;1262;24397;-49
2023/07/16 11:11:10;;;;;;;2.00;1.70;;;;;;;31.86;43.63;101830.88;107093;1262;25312;-49
2023/07/16 11:13:36;;;;;;;2.30;2.00;;;;;;;31.87;43.25;101829.66;107189;1262;25392;-49
2023/07/16 11:16:10;;;;;;;2.20;2.00;;;;;;;31.88;42.29;101830.31;106908;1266;25412;-49
2023/07/16 11:18:37;;;;;;;2.20;2.00;;;;;;;31.85;41.86;101828.07;107057;1264;25412;-49
2023/07/16 11:21:04;;;;;;;2.00;1.80;;;;;;;31.83;42.54;101830.44;107082;1257;25360;-49